sensor_id;sensor_type;location;lat;lon;timestamp;P1;durP1;ratioP1;P2;durP2;ratioP2
76063;SDS011;64762;52.006;8.424;2023-05-07T00:00:06;27.83;;;15.17;;
76063;SDS011;64762;52.006;8.424;2023-05-07T00:02:34;24.17;;;12.57;;
76063;SDS011;64762;52.006;8.424;2023-05-07T00:05:00;27.50;;;13.52;;
76063;SDS011;64762;52.006;8.424;2023-05-07T00:07:27;30.42;;;14.95;;
76063;SDS011;64762;52.006;8.424;2023-05-07T00:09:52;28.03;;;14.80;;
76063;SDS011;64762;52.006;8.424;2023-05-07T00:12:17;28.70;;;14.90;;
76063;SDS011;64762;52.006;8.424;2023-05-07T00:14:43;28.77;;;13.93;;
76063;SDS011;64762;52.006;8.424;2023-05-07T00:17:08;28.47;;;14.60;;
76063;SDS011;64762;52.006;8.424;2023-05-07T00:19:33;24.87;;;14.07;;
76063;SDS011;64762;52.006;8.424;2023-05-07T00:21:59;28.23;;;14.27;;
76063;SDS011;64762;52.006;8.424;2023-05-07T00:24:24;32.23;;;15.67;;
76063;SDS011;64762;52.006;8.424;2023-05-07T00:26:49;34.47;;;17.00;;
76063;SDS011;64762;52.006;8.424;2023-05-07T00:29:15;27.88;;;14.27;;
76063;SDS011;64762;52.006;8.424;2023-05-07T00:31:40;33.10;;;17.63;;
76063;SDS011;64762;52.006;8.424;2023-05-07T00:34:06;32.93;;;15.87;;
76063;SDS011;64762;52.006;8.424;2023-05-07T00:36:31;33.77;;;16.13;;
76063;SDS011;64762;52.006;8.424;2023-05-07T00:38:58;35.80;;;16.73;;
76063;SDS011;64762;52.006;8.424;2023-05-07T00:41:24;32.67;;;15.80;;
76063;SDS011;64762;52.006;8.424;2023-05-07T00:43:50;30.47;;;15.30;;
76063;SDS011;64762;52.006;8.424;2023-05-07T00:46:16;35.53;;;16.70;;
76063;SDS011;64762;52.006;8.424;2023-05-07T00:48:42;33.13;;;16.75;;
76063;SDS011;64762;52.006;8.424;2023-05-07T00:51:07;28.05;;;15.52;;
76063;SDS011;64762;52.006;8.424;2023-05-07T00:53:33;33.10;;;15.70;;
76063;SDS011;64762;52.006;8.424;2023-05-07T00:55:59;30.75;;;16.17;;
76063;SDS011;64762;52.006;8.424;2023-05-07T00:58:25;31.83;;;16.95;;
76063;SDS011;64762;52.006;8.424;2023-05-07T01:00:51;33.65;;;17.05;;
76063;SDS011;64762;52.006;8.424;2023-05-07T01:03:16;34.47;;;15.70;;
76063;SDS011;64762;52.006;8.424;2023-05-07T01:05:42;33.00;;;16.52;;
76063;SDS011;64762;52.006;8.424;2023-05-07T01:08:08;31.20;;;16.38;;
76063;SDS011;64762;52.006;8.424;2023-05-07T01:10:33;36.35;;;16.58;;
76063;SDS011;64762;52.006;8.424;2023-05-07T01:12:59;33.53;;;15.33;;
76063;SDS011;64762;52.006;8.424;2023-05-07T01:15:25;31.55;;;15.68;;
76063;SDS011;64762;52.006;8.424;2023-05-07T01:17:50;29.57;;;16.07;;
76063;SDS011;64762;52.006;8.424;2023-05-07T01:20:15;29.90;;;15.43;;
76063;SDS011;64762;52.006;8.424;2023-05-07T01:22:43;27.80;;;14.52;;
76063;SDS011;64762;52.006;8.424;2023-05-07T01:25:08;33.40;;;15.40;;
76063;SDS011;64762;52.006;8.424;2023-05-07T01:27:33;31.03;;;15.80;;
76063;SDS011;64762;52.006;8.424;2023-05-07T01:30:00;33.75;;;16.05;;
76063;SDS011;64762;52.006;8.424;2023-05-07T01:32:31;32.35;;;15.50;;
76063;SDS011;64762;52.006;8.424;2023-05-07T01:34:58;35.33;;;16.52;;
76063;SDS011;64762;52.006;8.424;2023-05-07T01:37:25;33.92;;;15.75;;
76063;SDS011;64762;52.006;8.424;2023-05-07T01:39:51;32.30;;;15.27;;
76063;SDS011;64762;52.006;8.424;2023-05-07T01:42:17;28.65;;;15.95;;
76063;SDS011;64762;52.006;8.424;2023-05-07T01:44:42;34.70;;;15.50;;
76063;SDS011;64762;52.006;8.424;2023-05-07T01:47:07;30.07;;;14.60;;
76063;SDS011;64762;52.006;8.424;2023-05-07T01:49:33;32.63;;;16.23;;
76063;SDS011;64762;52.006;8.424;2023-05-07T01:51:59;36.95;;;17.73;;
76063;SDS011;64762;52.006;8.424;2023-05-07T01:54:25;31.48;;;14.70;;
76063;SDS011;64762;52.006;8.424;2023-05-07T01:56:57;32.75;;;16.08;;
76063;SDS011;64762;52.006;8.424;2023-05-07T01:59:22;38.80;;;17.52;;
76063;SDS011;64762;52.006;8.424;2023-05-07T02:01:48;33.50;;;15.07;;
76063;SDS011;64762;52.006;8.424;2023-05-07T02:04:13;31.73;;;14.37;;
76063;SDS011;64762;52.006;8.424;2023-05-07T02:06:38;34.20;;;16.37;;
76063;SDS011;64762;52.006;8.424;2023-05-07T02:09:04;35.60;;;16.57;;
76063;SDS011;64762;52.006;8.424;2023-05-07T02:11:29;37.80;;;16.65;;
76063;SDS011;64762;52.006;8.424;2023-05-07T02:13:55;36.05;;;16.23;;
76063;SDS011;64762;52.006;8.424;2023-05-07T02:16:20;33.60;;;16.43;;
76063;SDS011;64762;52.006;8.424;2023-05-07T02:18:46;35.08;;;17.38;;
76063;SDS011;64762;52.006;8.424;2023-05-07T02:21:12;35.83;;;16.40;;
76063;SDS011;64762;52.006;8.424;2023-05-07T02:23:37;40.27;;;18.70;;
76063;SDS011;64762;52.006;8.424;2023-05-07T02:26:03;36.50;;;17.50;;
76063;SDS011;64762;52.006;8.424;2023-05-07T02:28:28;35.53;;;18.00;;
76063;SDS011;64762;52.006;8.424;2023-05-07T02:30:54;34.50;;;17.00;;
76063;SDS011;64762;52.006;8.424;2023-05-07T02:33:19;41.60;;;18.40;;
76063;SDS011;64762;52.006;8.424;2023-05-07T02:35:45;35.22;;;16.63;;
76063;SDS011;64762;52.006;8.424;2023-05-07T02:38:10;32.17;;;16.87;;
76063;SDS011;64762;52.006;8.424;2023-05-07T02:40:36;40.67;;;17.23;;
76063;SDS011;64762;52.006;8.424;2023-05-07T02:43:04;33.78;;;16.92;;
76063;SDS011;64762;52.006;8.424;2023-05-07T02:45:30;36.28;;;18.50;;
76063;SDS011;64762;52.006;8.424;2023-05-07T02:47:55;39.57;;;17.93;;
76063;SDS011;64762;52.006;8.424;2023-05-07T02:50:20;37.00;;;17.63;;
76063;SDS011;64762;52.006;8.424;2023-05-07T02:52:46;37.03;;;17.67;;
76063;SDS011;64762;52.006;8.424;2023-05-07T02:55:12;34.80;;;15.77;;
76063;SDS011;64762;52.006;8.424;2023-05-07T02:57:37;42.37;;;19.77;;
76063;SDS011;64762;52.006;8.424;2023-05-07T03:00:15;40.80;;;19.10;;
76063;SDS011;64762;52.006;8.424;2023-05-07T03:02:42;36.50;;;18.17;;
76063;SDS011;64762;52.006;8.424;2023-05-07T03:05:08;38.30;;;18.05;;
76063;SDS011;64762;52.006;8.424;2023-05-07T03:07:34;40.60;;;18.70;;
76063;SDS011;64762;52.006;8.424;2023-05-07T03:10:00;37.92;;;18.40;;
76063;SDS011;64762;52.006;8.424;2023-05-07T03:12:25;36.90;;;18.90;;
76063;SDS011;64762;52.006;8.424;2023-05-07T03:14:51;33.13;;;15.90;;
76063;SDS011;64762;52.006;8.424;2023-05-07T03:17:16;37.80;;;18.80;;
76063;SDS011;64762;52.006;8.424;2023-05-07T03:19:41;38.50;;;17.83;;
76063;SDS011;64762;52.006;8.424;2023-05-07T03:22:06;40.73;;;17.93;;
76063;SDS011;64762;52.006;8.424;2023-05-07T03:24:32;38.90;;;18.93;;
76063;SDS011;64762;52.006;8.424;2023-05-07T03:26:57;38.50;;;18.63;;
76063;SDS011;64762;52.006;8.424;2023-05-07T03:29:23;39.73;;;17.77;;
76063;SDS011;64762;52.006;8.424;2023-05-07T03:31:48;39.13;;;18.30;;
76063;SDS011;64762;52.006;8.424;2023-05-07T03:34:13;33.87;;;13.57;;
76063;SDS011;64762;52.006;8.424;2023-05-07T03:36:39;34.77;;;17.90;;
76063;SDS011;64762;52.006;8.424;2023-05-07T03:39:04;37.47;;;17.20;;
76063;SDS011;64762;52.006;8.424;2023-05-07T03:41:29;34.43;;;18.50;;
76063;SDS011;64762;52.006;8.424;2023-05-07T03:43:55;35.95;;;16.42;;
76063;SDS011;64762;52.006;8.424;2023-05-07T03:46:20;35.37;;;17.63;;
76063;SDS011;64762;52.006;8.424;2023-05-07T03:48:45;37.43;;;19.03;;
76063;SDS011;64762;52.006;8.424;2023-05-07T03:51:11;36.55;;;18.00;;
76063;SDS011;64762;52.006;8.424;2023-05-07T03:53:36;37.00;;;18.40;;
76063;SDS011;64762;52.006;8.424;2023-05-07T03:56:01;39.27;;;18.43;;
76063;SDS011;64762;52.006;8.424;2023-05-07T03:58:27;39.37;;;17.47;;
76063;SDS011;64762;52.006;8.424;2023-05-07T04:00:52;39.03;;;18.35;;
76063;SDS011;64762;52.006;8.424;2023-05-07T04:03:18;39.37;;;19.10;;
76063;SDS011;64762;52.006;8.424;2023-05-07T04:05:43;41.80;;;18.83;;
76063;SDS011;64762;52.006;8.424;2023-05-07T04:08:08;48.17;;;18.57;;
76063;SDS011;64762;52.006;8.424;2023-05-07T04:10:34;36.80;;;18.07;;
76063;SDS011;64762;52.006;8.424;2023-05-07T04:12:59;38.10;;;17.45;;
76063;SDS011;64762;52.006;8.424;2023-05-07T04:15:24;41.93;;;19.10;;
76063;SDS011;64762;52.006;8.424;2023-05-07T04:17:50;39.80;;;15.87;;
76063;SDS011;64762;52.006;8.424;2023-05-07T04:20:15;38.77;;;18.33;;
76063;SDS011;64762;52.006;8.424;2023-05-07T04:22:41;37.65;;;17.15;;
76063;SDS011;64762;52.006;8.424;2023-05-07T04:25:07;39.13;;;17.05;;
76063;SDS011;64762;52.006;8.424;2023-05-07T04:27:34;37.28;;;17.45;;
76063;SDS011;64762;52.006;8.424;2023-05-07T04:29:59;36.15;;;17.77;;
76063;SDS011;64762;52.006;8.424;2023-05-07T04:32:25;38.70;;;17.27;;
76063;SDS011;64762;52.006;8.424;2023-05-07T04:34:51;38.13;;;16.98;;
76063;SDS011;64762;52.006;8.424;2023-05-07T04:37:16;38.33;;;17.73;;
76063;SDS011;64762;52.006;8.424;2023-05-07T04:39:41;36.08;;;17.15;;
76063;SDS011;64762;52.006;8.424;2023-05-07T04:42:07;30.60;;;15.43;;
76063;SDS011;64762;52.006;8.424;2023-05-07T04:44:34;34.25;;;17.20;;
76063;SDS011;64762;52.006;8.424;2023-05-07T04:47:00;41.40;;;16.90;;
76063;SDS011;64762;52.006;8.424;2023-05-07T04:49:25;40.08;;;17.52;;
76063;SDS011;64762;52.006;8.424;2023-05-07T04:51:50;36.57;;;17.77;;
76063;SDS011;64762;52.006;8.424;2023-05-07T04:54:16;35.90;;;17.83;;
76063;SDS011;64762;52.006;8.424;2023-05-07T04:56:41;39.63;;;17.63;;
76063;SDS011;64762;52.006;8.424;2023-05-07T04:59:06;39.13;;;16.17;;
76063;SDS011;64762;52.006;8.424;2023-05-07T05:01:32;35.67;;;17.70;;
76063;SDS011;64762;52.006;8.424;2023-05-07T05:03:57;39.05;;;17.73;;
76063;SDS011;64762;52.006;8.424;2023-05-07T05:06:22;39.40;;;18.30;;
76063;SDS011;64762;52.006;8.424;2023-05-07T05:08:48;39.83;;;17.87;;
76063;SDS011;64762;52.006;8.424;2023-05-07T05:11:13;42.58;;;18.92;;
76063;SDS011;64762;52.006;8.424;2023-05-07T05:13:40;41.13;;;19.70;;
76063;SDS011;64762;52.006;8.424;2023-05-07T05:16:05;37.38;;;19.00;;
76063;SDS011;64762;52.006;8.424;2023-05-07T05:18:31;42.35;;;19.30;;
76063;SDS011;64762;52.006;8.424;2023-05-07T05:20:59;37.60;;;16.88;;
76063;SDS011;64762;52.006;8.424;2023-05-07T05:23:27;42.25;;;18.80;;
76063;SDS011;64762;52.006;8.424;2023-05-07T05:25:56;42.92;;;19.00;;
76063;SDS011;64762;52.006;8.424;2023-05-07T05:28:25;43.67;;;19.45;;
76063;SDS011;64762;52.006;8.424;2023-05-07T05:30:50;41.67;;;17.17;;
76063;SDS011;64762;52.006;8.424;2023-05-07T05:33:16;36.28;;;17.67;;
76063;SDS011;64762;52.006;8.424;2023-05-07T05:35:41;38.87;;;16.87;;
76063;SDS011;64762;52.006;8.424;2023-05-07T05:38:07;33.03;;;16.95;;
76063;SDS011;64762;52.006;8.424;2023-05-07T05:40:35;46.00;;;18.27;;
76063;SDS011;64762;52.006;8.424;2023-05-07T05:43:01;39.70;;;17.52;;
76063;SDS011;64762;52.006;8.424;2023-05-07T05:45:26;40.27;;;18.43;;
76063;SDS011;64762;52.006;8.424;2023-05-07T05:47:52;42.60;;;18.83;;
76063;SDS011;64762;52.006;8.424;2023-05-07T05:50:17;39.67;;;17.83;;
76063;SDS011;64762;52.006;8.424;2023-05-07T05:52:42;43.22;;;17.33;;
76063;SDS011;64762;52.006;8.424;2023-05-07T05:55:08;38.27;;;17.80;;
76063;SDS011;64762;52.006;8.424;2023-05-07T05:57:34;35.88;;;16.83;;
76063;SDS011;64762;52.006;8.424;2023-05-07T06:00:00;37.97;;;17.98;;
76063;SDS011;64762;52.006;8.424;2023-05-07T06:02:25;32.38;;;16.00;;
76063;SDS011;64762;52.006;8.424;2023-05-07T06:04:51;35.47;;;17.97;;
76063;SDS011;64762;52.006;8.424;2023-05-07T06:07:16;40.63;;;17.83;;
76063;SDS011;64762;52.006;8.424;2023-05-07T06:09:42;38.45;;;16.88;;
76063;SDS011;64762;52.006;8.424;2023-05-07T06:12:07;38.37;;;17.30;;
76063;SDS011;64762;52.006;8.424;2023-05-07T06:14:33;30.63;;;14.93;;
76063;SDS011;64762;52.006;8.424;2023-05-07T06:16:58;37.88;;;17.33;;
76063;SDS011;64762;52.006;8.424;2023-05-07T06:19:23;37.73;;;16.50;;
76063;SDS011;64762;52.006;8.424;2023-05-07T06:21:51;50.80;;;18.80;;
76063;SDS011;64762;52.006;8.424;2023-05-07T06:24:16;33.70;;;17.47;;
76063;SDS011;64762;52.006;8.424;2023-05-07T06:26:42;34.37;;;15.77;;
76063;SDS011;64762;52.006;8.424;2023-05-07T06:29:07;33.97;;;15.43;;
76063;SDS011;64762;52.006;8.424;2023-05-07T06:31:32;32.80;;;16.80;;
76063;SDS011;64762;52.006;8.424;2023-05-07T06:33:57;31.97;;;13.70;;
76063;SDS011;64762;52.006;8.424;2023-05-07T06:36:24;33.83;;;15.43;;
76063;SDS011;64762;52.006;8.424;2023-05-07T06:38:49;35.88;;;16.30;;
76063;SDS011;64762;52.006;8.424;2023-05-07T06:41:14;38.10;;;17.27;;
76063;SDS011;64762;52.006;8.424;2023-05-07T06:43:40;35.30;;;14.80;;
76063;SDS011;64762;52.006;8.424;2023-05-07T06:46:05;33.83;;;15.18;;
76063;SDS011;64762;52.006;8.424;2023-05-07T06:48:31;33.58;;;16.90;;
76063;SDS011;64762;52.006;8.424;2023-05-07T06:50:57;29.55;;;13.55;;
76063;SDS011;64762;52.006;8.424;2023-05-07T06:53:23;33.35;;;14.73;;
76063;SDS011;64762;52.006;8.424;2023-05-07T06:55:48;32.25;;;15.85;;
76063;SDS011;64762;52.006;8.424;2023-05-07T06:58:14;30.73;;;15.07;;
76063;SDS011;64762;52.006;8.424;2023-05-07T07:00:39;27.93;;;13.80;;
76063;SDS011;64762;52.006;8.424;2023-05-07T07:03:05;31.60;;;14.85;;
76063;SDS011;64762;52.006;8.424;2023-05-07T07:05:31;30.60;;;14.02;;
76063;SDS011;64762;52.006;8.424;2023-05-07T07:07:56;30.90;;;13.97;;
76063;SDS011;64762;52.006;8.424;2023-05-07T07:10:21;26.47;;;13.07;;
76063;SDS011;64762;52.006;8.424;2023-05-07T07:12:48;30.80;;;14.48;;
76063;SDS011;64762;52.006;8.424;2023-05-07T07:15:14;24.77;;;12.88;;
76063;SDS011;64762;52.006;8.424;2023-05-07T07:17:40;28.58;;;12.98;;
76063;SDS011;64762;52.006;8.424;2023-05-07T07:20:05;28.63;;;14.07;;
76063;SDS011;64762;52.006;8.424;2023-05-07T07:22:31;28.40;;;13.48;;
76063;SDS011;64762;52.006;8.424;2023-05-07T07:24:57;33.90;;;14.52;;
76063;SDS011;64762;52.006;8.424;2023-05-07T07:27:22;27.00;;;13.38;;
76063;SDS011;64762;52.006;8.424;2023-05-07T07:29:48;29.17;;;14.63;;
76063;SDS011;64762;52.006;8.424;2023-05-07T07:32:13;31.15;;;14.57;;
76063;SDS011;64762;52.006;8.424;2023-05-07T07:34:39;28.50;;;12.57;;
76063;SDS011;64762;52.006;8.424;2023-05-07T07:37:04;27.40;;;12.45;;
76063;SDS011;64762;52.006;8.424;2023-05-07T07:39:33;28.45;;;13.23;;
76063;SDS011;64762;52.006;8.424;2023-05-07T07:41:59;27.77;;;12.95;;
76063;SDS011;64762;52.006;8.424;2023-05-07T07:44:25;27.58;;;13.23;;
76063;SDS011;64762;52.006;8.424;2023-05-07T07:46:51;28.13;;;12.75;;
76063;SDS011;64762;52.006;8.424;2023-05-07T07:49:16;28.58;;;13.20;;
76063;SDS011;64762;52.006;8.424;2023-05-07T07:51:42;27.27;;;13.57;;
76063;SDS011;64762;52.006;8.424;2023-05-07T07:54:08;24.17;;;11.68;;
76063;SDS011;64762;52.006;8.424;2023-05-07T07:56:33;23.52;;;12.32;;
76063;SDS011;64762;52.006;8.424;2023-05-07T07:58:59;23.73;;;11.52;;
76063;SDS011;64762;52.006;8.424;2023-05-07T08:01:25;23.83;;;12.68;;
76063;SDS011;64762;52.006;8.424;2023-05-07T08:03:51;23.98;;;12.07;;
76063;SDS011;64762;52.006;8.424;2023-05-07T08:06:16;23.77;;;11.73;;
76063;SDS011;64762;52.006;8.424;2023-05-07T08:08:41;23.13;;;12.10;;
76063;SDS011;64762;52.006;8.424;2023-05-07T08:11:07;25.67;;;12.57;;
76063;SDS011;64762;52.006;8.424;2023-05-07T08:13:32;25.10;;;11.73;;
76063;SDS011;64762;52.006;8.424;2023-05-07T08:15:57;23.00;;;11.30;;
76063;SDS011;64762;52.006;8.424;2023-05-07T08:18:23;22.13;;;10.15;;
76063;SDS011;64762;52.006;8.424;2023-05-07T08:20:49;20.98;;;11.35;;
76063;SDS011;64762;52.006;8.424;2023-05-07T08:23:15;20.98;;;10.98;;
76063;SDS011;64762;52.006;8.424;2023-05-07T08:25:40;20.80;;;9.13;;
76063;SDS011;64762;52.006;8.424;2023-05-07T08:28:07;23.33;;;10.98;;
76063;SDS011;64762;52.006;8.424;2023-05-07T08:30:32;24.08;;;10.77;;
76063;SDS011;64762;52.006;8.424;2023-05-07T08:32:58;17.83;;;9.37;;
76063;SDS011;64762;52.006;8.424;2023-05-07T08:35:23;20.97;;;10.13;;
76063;SDS011;64762;52.006;8.424;2023-05-07T08:37:49;20.23;;;8.30;;
76063;SDS011;64762;52.006;8.424;2023-05-07T08:40:14;20.58;;;10.70;;
76063;SDS011;64762;52.006;8.424;2023-05-07T08:42:39;18.97;;;10.03;;
76063;SDS011;64762;52.006;8.424;2023-05-07T08:45:07;20.13;;;10.82;;
76063;SDS011;64762;52.006;8.424;2023-05-07T08:47:42;19.02;;;9.88;;
76063;SDS011;64762;52.006;8.424;2023-05-07T08:50:11;18.92;;;9.50;;
76063;SDS011;64762;52.006;8.424;2023-05-07T08:52:36;16.33;;;8.67;;
76063;SDS011;64762;52.006;8.424;2023-05-07T08:55:02;16.02;;;9.20;;
76063;SDS011;64762;52.006;8.424;2023-05-07T08:57:28;17.02;;;8.52;;
76063;SDS011;64762;52.006;8.424;2023-05-07T08:59:53;16.90;;;8.77;;
76063;SDS011;64762;52.006;8.424;2023-05-07T09:02:18;15.90;;;8.60;;
76063;SDS011;64762;52.006;8.424;2023-05-07T09:04:44;18.60;;;8.90;;
76063;SDS011;64762;52.006;8.424;2023-05-07T09:07:10;18.27;;;9.10;;
76063;SDS011;64762;52.006;8.424;2023-05-07T09:09:36;16.45;;;9.50;;
76063;SDS011;64762;52.006;8.424;2023-05-07T09:12:02;17.42;;;8.93;;
76063;SDS011;64762;52.006;8.424;2023-05-07T09:14:29;15.40;;;8.27;;
76063;SDS011;64762;52.006;8.424;2023-05-07T09:16:55;17.95;;;8.93;;
76063;SDS011;64762;52.006;8.424;2023-05-07T09:19:24;18.00;;;8.93;;
76063;SDS011;64762;52.006;8.424;2023-05-07T09:22:02;18.17;;;8.88;;
76063;SDS011;64762;52.006;8.424;2023-05-07T09:24:33;14.52;;;7.32;;
76063;SDS011;64762;52.006;8.424;2023-05-07T09:27:01;14.90;;;8.40;;
76063;SDS011;64762;52.006;8.424;2023-05-07T09:29:27;16.58;;;8.05;;
76063;SDS011;64762;52.006;8.424;2023-05-07T09:31:55;17.75;;;8.82;;
76063;SDS011;64762;52.006;8.424;2023-05-07T09:34:20;14.52;;;6.50;;
76063;SDS011;64762;52.006;8.424;2023-05-07T09:36:46;17.37;;;8.40;;
76063;SDS011;64762;52.006;8.424;2023-05-07T09:39:11;13.45;;;7.15;;
76063;SDS011;64762;52.006;8.424;2023-05-07T09:41:44;13.85;;;7.80;;
76063;SDS011;64762;52.006;8.424;2023-05-07T09:44:10;17.02;;;8.70;;
76063;SDS011;64762;52.006;8.424;2023-05-07T09:46:36;12.93;;;6.65;;
76063;SDS011;64762;52.006;8.424;2023-05-07T09:49:02;13.60;;;7.78;;
76063;SDS011;64762;52.006;8.424;2023-05-07T09:53:59;16.17;;;8.85;;
76063;SDS011;64762;52.006;8.424;2023-05-07T09:56:27;12.80;;;6.82;;
76063;SDS011;64762;52.006;8.424;2023-05-07T10:01:25;14.25;;;7.53;;
76063;SDS011;64762;52.006;8.424;2023-05-07T10:03:51;15.35;;;7.47;;
76063;SDS011;64762;52.006;8.424;2023-05-07T10:06:16;13.82;;;7.28;;
76063;SDS011;64762;52.006;8.424;2023-05-07T10:08:42;14.95;;;7.82;;
76063;SDS011;64762;52.006;8.424;2023-05-07T10:11:08;14.70;;;7.07;;
76063;SDS011;64762;52.006;8.424;2023-05-07T10:13:34;17.17;;;8.75;;
76063;SDS011;64762;52.006;8.424;2023-05-07T10:16:01;18.63;;;9.18;;
76063;SDS011;64762;52.006;8.424;2023-05-07T10:18:26;15.70;;;8.18;;
76063;SDS011;64762;52.006;8.424;2023-05-07T10:20:54;14.90;;;7.20;;
76063;SDS011;64762;52.006;8.424;2023-05-07T10:23:26;18.33;;;8.18;;
76063;SDS011;64762;52.006;8.424;2023-05-07T10:25:52;14.80;;;7.78;;
76063;SDS011;64762;52.006;8.424;2023-05-07T10:28:19;17.35;;;8.48;;
76063;SDS011;64762;52.006;8.424;2023-05-07T10:31:03;16.30;;;7.93;;
76063;SDS011;64762;52.006;8.424;2023-05-07T10:33:36;15.93;;;7.97;;
76063;SDS011;64762;52.006;8.424;2023-05-07T10:36:02;14.90;;;7.22;;
76063;SDS011;64762;52.006;8.424;2023-05-07T10:38:29;16.30;;;8.50;;
76063;SDS011;64762;52.006;8.424;2023-05-07T10:40:55;14.93;;;6.70;;
76063;SDS011;64762;52.006;8.424;2023-05-07T10:43:20;12.13;;;6.20;;
76063;SDS011;64762;52.006;8.424;2023-05-07T10:51:28;12.48;;;6.97;;
76063;SDS011;64762;52.006;8.424;2023-05-07T10:56:36;15.40;;;7.22;;
76063;SDS011;64762;52.006;8.424;2023-05-07T11:02:02;12.07;;;5.97;;
76063;SDS011;64762;52.006;8.424;2023-05-07T11:04:29;15.68;;;7.25;;
76063;SDS011;64762;52.006;8.424;2023-05-07T11:15:11;11.02;;;5.47;;
76063;SDS011;64762;52.006;8.424;2023-05-07T11:17:58;10.75;;;5.70;;
76063;SDS011;64762;52.006;8.424;2023-05-07T11:26:00;11.63;;;5.85;;
76063;SDS011;64762;52.006;8.424;2023-05-07T11:28:28;12.35;;;6.30;;
76063;SDS011;64762;52.006;8.424;2023-05-07T11:30:53;14.98;;;7.55;;
76063;SDS011;64762;52.006;8.424;2023-05-07T11:33:19;12.57;;;6.88;;
76063;SDS011;64762;52.006;8.424;2023-05-07T11:35:44;14.20;;;5.80;;
76063;SDS011;64762;52.006;8.424;2023-05-07T11:38:10;11.63;;;6.20;;
76063;SDS011;64762;52.006;8.424;2023-05-07T11:40:48;11.63;;;6.25;;
76063;SDS011;64762;52.006;8.424;2023-05-07T11:43:17;10.73;;;5.80;;
76063;SDS011;64762;52.006;8.424;2023-05-07T11:45:42;10.52;;;5.28;;
76063;SDS011;64762;52.006;8.424;2023-05-07T11:48:09;10.68;;;5.88;;
76063;SDS011;64762;52.006;8.424;2023-05-07T11:50:34;11.43;;;5.03;;
76063;SDS011;64762;52.006;8.424;2023-05-07T11:52:59;10.60;;;5.00;;
76063;SDS011;64762;52.006;8.424;2023-05-07T11:55:25;11.30;;;6.23;;
76063;SDS011;64762;52.006;8.424;2023-05-07T11:57:51;12.32;;;6.38;;
76063;SDS011;64762;52.006;8.424;2023-05-07T12:00:16;13.68;;;5.93;;
76063;SDS011;64762;52.006;8.424;2023-05-07T12:02:42;11.90;;;5.55;;
76063;SDS011;64762;52.006;8.424;2023-05-07T12:05:08;10.90;;;5.78;;
76063;SDS011;64762;52.006;8.424;2023-05-07T12:07:34;11.37;;;5.67;;
76063;SDS011;64762;52.006;8.424;2023-05-07T12:09:59;10.80;;;5.13;;
76063;SDS011;64762;52.006;8.424;2023-05-07T12:12:29;11.13;;;6.03;;
76063;SDS011;64762;52.006;8.424;2023-05-07T12:14:55;11.43;;;5.70;;
76063;SDS011;64762;52.006;8.424;2023-05-07T12:17:20;10.52;;;5.38;;
76063;SDS011;64762;52.006;8.424;2023-05-07T12:19:46;10.38;;;5.63;;
76063;SDS011;64762;52.006;8.424;2023-05-07T12:22:12;10.07;;;4.60;;
76063;SDS011;64762;52.006;8.424;2023-05-07T12:24:44;8.20;;;4.35;;
76063;SDS011;64762;52.006;8.424;2023-05-07T12:27:13;9.38;;;4.97;;
76063;SDS011;64762;52.006;8.424;2023-05-07T12:29:43;9.38;;;4.78;;
76063;SDS011;64762;52.006;8.424;2023-05-07T12:32:14;9.15;;;4.53;;
76063;SDS011;64762;52.006;8.424;2023-05-07T12:34:40;10.10;;;5.60;;
76063;SDS011;64762;52.006;8.424;2023-05-07T12:37:06;7.88;;;4.63;;
76063;SDS011;64762;52.006;8.424;2023-05-07T12:39:31;9.23;;;4.60;;
76063;SDS011;64762;52.006;8.424;2023-05-07T12:41:58;6.60;;;4.00;;
76063;SDS011;64762;52.006;8.424;2023-05-07T12:44:30;8.88;;;5.00;;
76063;SDS011;64762;52.006;8.424;2023-05-07T12:46:57;8.45;;;4.63;;
76063;SDS011;64762;52.006;8.424;2023-05-07T12:49:23;8.20;;;4.25;;
76063;SDS011;64762;52.006;8.424;2023-05-07T12:51:48;9.25;;;4.32;;
76063;SDS011;64762;52.006;8.424;2023-05-07T12:54:37;7.68;;;4.22;;
76063;SDS011;64762;52.006;8.424;2023-05-07T12:57:06;7.88;;;4.55;;
76063;SDS011;64762;52.006;8.424;2023-05-07T13:01:58;7.70;;;4.00;;
76063;SDS011;64762;52.006;8.424;2023-05-07T13:04:24;10.77;;;4.37;;
76063;SDS011;64762;52.006;8.424;2023-05-07T13:06:50;9.30;;;4.85;;
76063;SDS011;64762;52.006;8.424;2023-05-07T13:09:15;9.70;;;5.20;;
76063;SDS011;64762;52.006;8.424;2023-05-07T13:11:40;9.50;;;4.80;;
76063;SDS011;64762;52.006;8.424;2023-05-07T13:14:05;11.23;;;5.23;;
76063;SDS011;64762;52.006;8.424;2023-05-07T13:16:31;10.27;;;4.80;;
76063;SDS011;64762;52.006;8.424;2023-05-07T13:18:56;9.63;;;4.50;;
76063;SDS011;64762;52.006;8.424;2023-05-07T13:21:21;8.97;;;4.73;;
76063;SDS011;64762;52.006;8.424;2023-05-07T13:23:46;8.87;;;5.07;;
76063;SDS011;64762;52.006;8.424;2023-05-07T13:26:12;15.87;;;6.90;;
76063;SDS011;64762;52.006;8.424;2023-05-07T13:28:37;12.53;;;6.50;;
76063;SDS011;64762;52.006;8.424;2023-05-07T13:31:02;13.63;;;5.50;;
76063;SDS011;64762;52.006;8.424;2023-05-07T13:33:28;11.30;;;5.90;;
76063;SDS011;64762;52.006;8.424;2023-05-07T13:35:53;8.97;;;4.93;;
76063;SDS011;64762;52.006;8.424;2023-05-07T13:38:18;14.65;;;8.02;;
76063;SDS011;64762;52.006;8.424;2023-05-07T13:40:44;13.50;;;6.47;;
76063;SDS011;64762;52.006;8.424;2023-05-07T13:43:09;16.92;;;7.15;;
76063;SDS011;64762;52.006;8.424;2023-05-07T13:45:35;9.90;;;4.90;;
76063;SDS011;64762;52.006;8.424;2023-05-07T13:48:00;9.70;;;5.47;;
76063;SDS011;64762;52.006;8.424;2023-05-07T13:50:26;9.40;;;4.93;;
76063;SDS011;64762;52.006;8.424;2023-05-07T13:52:55;16.88;;;6.53;;
76063;SDS011;64762;52.006;8.424;2023-05-07T13:55:20;9.88;;;5.53;;
76063;SDS011;64762;52.006;8.424;2023-05-07T13:57:46;12.95;;;5.85;;
76063;SDS011;64762;52.006;8.424;2023-05-07T14:00:12;9.55;;;4.80;;
76063;SDS011;64762;52.006;8.424;2023-05-07T14:02:39;11.35;;;5.35;;
76063;SDS011;64762;52.006;8.424;2023-05-07T14:05:04;10.63;;;5.30;;
76063;SDS011;64762;52.006;8.424;2023-05-07T14:07:30;9.38;;;4.78;;
76063;SDS011;64762;52.006;8.424;2023-05-07T14:09:56;10.30;;;5.20;;
76063;SDS011;64762;52.006;8.424;2023-05-07T14:12:21;10.80;;;5.95;;
76063;SDS011;64762;52.006;8.424;2023-05-07T14:14:47;9.50;;;5.43;;
76063;SDS011;64762;52.006;8.424;2023-05-07T14:17:12;10.23;;;5.30;;
76063;SDS011;64762;52.006;8.424;2023-05-07T14:19:37;9.30;;;5.50;;
76063;SDS011;64762;52.006;8.424;2023-05-07T14:22:03;13.43;;;6.00;;
76063;SDS011;64762;52.006;8.424;2023-05-07T14:24:29;9.00;;;5.32;;
76063;SDS011;64762;52.006;8.424;2023-05-07T14:26:55;10.18;;;4.90;;
76063;SDS011;64762;52.006;8.424;2023-05-07T14:29:20;10.00;;;5.83;;
76063;SDS011;64762;52.006;8.424;2023-05-07T14:31:47;10.27;;;5.28;;
76063;SDS011;64762;52.006;8.424;2023-05-07T14:34:12;12.67;;;6.20;;
76063;SDS011;64762;52.006;8.424;2023-05-07T14:36:37;11.00;;;5.87;;
76063;SDS011;64762;52.006;8.424;2023-05-07T14:39:03;11.65;;;6.53;;
76063;SDS011;64762;52.006;8.424;2023-05-07T14:41:28;13.25;;;7.40;;
76063;SDS011;64762;52.006;8.424;2023-05-07T14:43:54;10.17;;;5.83;;
76063;SDS011;64762;52.006;8.424;2023-05-07T14:46:19;11.87;;;5.60;;
76063;SDS011;64762;52.006;8.424;2023-05-07T14:48:45;12.40;;;6.43;;
76063;SDS011;64762;52.006;8.424;2023-05-07T14:51:13;10.02;;;5.35;;
76063;SDS011;64762;52.006;8.424;2023-05-07T14:53:38;9.77;;;5.03;;